Selawik, AK

5:14 PM AKDT on July 25, 2014 (GMT -0800)
Baker Memorial (PAIK) Elev 151 ft | 66.98 °N, 160.44 °W | Change Station

Current weather conditions updated 13 minutes ago

Partly Cloudy
Partly Cloudy
57 °F
Feels Like 57 °F
N
12
Wind Variable Wind from WNW

Tomorrow is forecast to be nearly the same temperature as today.

Today
High -- | Low -- °F
--% Chance of Precip.
Yesterday
High -- | Low -- °F
Precip. -- in
4:49 AM 0:31 AM
Waning Crescent, 1% visible
Pressure 30.14 in
Visibility 10.0 miles
Clouds Few 5000 ft
Dew Point 34 °F
Humidity 42%
Rainfall 0.00 in
Snow Depth Not available.
UV 4 out of 12
Pollen Not available.
Air Quality Not available.
Flu Activity Not available.
METAR PAIK 260101Z AUTO 30010KT 10SM FEW050 14/01 A3002 RMK AO2 SLP206 T01390011

More Conditions Fewer Conditions

Pressure 30.14 in
Visibility 10.0 miles
Clouds Few 5000 ft
Dew Point 34 °F
Humidity 42%
Rainfall 0.00 in
Snow Depth Not available.
UV 4 out of 12
Pollen Not available.
Air Quality Not available.
Flu Activity Not available.
METAR PAIK 260101Z AUTO 30010KT 10SM FEW050 14/01 A3002 RMK AO2 SLP206 T01390011

More Conditions Fewer Conditions

10-Day Weather Forecast

Almanac

Astronomy

Jul. 25, 2014 Rise Set
Actual Time 4:49 AM AKDT 12:31 AM AKDT
Civil Twilight 3:14 AM AKDT 2:09 AM AKDT
Nautical Twilight Sun does not rise Sun does not rise
Astronomical Twilight Sun does not rise Sun does not rise
Moon 4:32 AM AKDT (7/25) 10:50 PM AKDT (7/25)
Length of Visible Light 22h 55m
Length of Day
19h 41m
Tomorrow will be 8m 26s shorter.
Waning Crescent, 1% of the Moon is Illuminated
Today
Waning Crescent
Jul 26
New
Aug 3
First Quarter
Aug 10
Full
Aug 17
Last Quarter

Today's Extremes

State Highs State Lows

Community

WunderPhotos

Upload Photos

1,737,459 photos uploaded!

Nearby

Snow Depth

Station Depth Elevation
Rocky Point 2 in 500 ft
Gobblers Knob 0 in 2030 ft
Coldfoot 0 in 1040 ft
Atigun Pass 0 in 4800 ft
Imnaviat Creek 62 in 3050 ft

Earthquake Activity

City Distance Mag. Time & Date
No recent earthquake activity has been reported nearby.
Minimum magnitude displayed is 2.5.

Coastal Water Temperatures

Place Temperature
No Stations Reporting

Nearby Weather Stations

Station Location Temp. Windchill Dew Point Humidity Wind Precip. Elev Updated Type
RAWS SELAWIK AK, Selawik, AK 58 °F - 33 °F 39% NW  at  4 mph 0.00 in / hr 104 ft 3:49 PM AKDT MADIS
RAWS TAG MTN AK, Selawik, AK 44 °F 44 °F 33 °F 65% North  at  0 mph 0.00 in / hr 2017 ft 3:54 PM AKDT MADIS

Show More Stations Show Fewer Stations